sensor_id;sensor_type;location;lat;lon;timestamp;P1;durP1;ratioP1;P2;durP2;ratioP2
49071;SDS011;74284;52.610;10.236;2024-02-14T00:00:26;7.22;;;3.00;;
49071;SDS011;74284;52.610;10.236;2024-02-14T00:02:51;5.63;;;3.35;;
49071;SDS011;74284;52.610;10.236;2024-02-14T00:05:17;4.82;;;2.88;;
49071;SDS011;74284;52.610;10.236;2024-02-14T00:07:42;6.60;;;3.03;;
49071;SDS011;74284;52.610;10.236;2024-02-14T00:10:08;7.63;;;3.00;;
49071;SDS011;74284;52.610;10.236;2024-02-14T00:12:34;6.72;;;3.22;;
49071;SDS011;74284;52.610;10.236;2024-02-14T00:15:00;6.35;;;3.08;;
49071;SDS011;74284;52.610;10.236;2024-02-14T00:17:28;4.32;;;2.80;;
49071;SDS011;74284;52.610;10.236;2024-02-14T00:19:54;6.32;;;3.45;;
49071;SDS011;74284;52.610;10.236;2024-02-14T00:22:19;5.77;;;3.20;;
49071;SDS011;74284;52.610;10.236;2024-02-14T00:24:44;11.67;;;3.33;;
49071;SDS011;74284;52.610;10.236;2024-02-14T00:27:10;8.20;;;3.83;;
49071;SDS011;74284;52.610;10.236;2024-02-14T00:29:35;9.05;;;3.25;;
49071;SDS011;74284;52.610;10.236;2024-02-14T00:32:00;7.05;;;3.45;;
49071;SDS011;74284;52.610;10.236;2024-02-14T00:34:26;9.13;;;3.58;;
49071;SDS011;74284;52.610;10.236;2024-02-14T00:36:52;6.82;;;3.80;;
49071;SDS011;74284;52.610;10.236;2024-02-14T00:39:17;7.50;;;3.70;;
49071;SDS011;74284;52.610;10.236;2024-02-14T00:41:42;5.32;;;3.58;;
49071;SDS011;74284;52.610;10.236;2024-02-14T00:44:08;10.43;;;3.53;;
49071;SDS011;74284;52.610;10.236;2024-02-14T00:46:33;4.72;;;3.00;;
49071;SDS011;74284;52.610;10.236;2024-02-14T00:48:58;6.33;;;3.50;;
49071;SDS011;74284;52.610;10.236;2024-02-14T00:51:24;5.53;;;3.20;;
49071;SDS011;74284;52.610;10.236;2024-02-14T00:53:50;5.22;;;3.17;;
49071;SDS011;74284;52.610;10.236;2024-02-14T00:56:16;5.55;;;3.60;;
49071;SDS011;74284;52.610;10.236;2024-02-14T00:58:42;6.03;;;3.70;;
49071;SDS011;74284;52.610;10.236;2024-02-14T01:01:07;7.18;;;3.45;;
49071;SDS011;74284;52.610;10.236;2024-02-14T01:03:33;6.93;;;3.40;;
49071;SDS011;74284;52.610;10.236;2024-02-14T01:05:58;5.83;;;3.30;;
49071;SDS011;74284;52.610;10.236;2024-02-14T01:08:23;5.93;;;3.45;;
49071;SDS011;74284;52.610;10.236;2024-02-14T01:10:48;5.18;;;3.00;;
49071;SDS011;74284;52.610;10.236;2024-02-14T01:13:16;5.65;;;3.22;;
49071;SDS011;74284;52.610;10.236;2024-02-14T01:15:42;5.20;;;3.17;;
49071;SDS011;74284;52.610;10.236;2024-02-14T01:18:07;5.32;;;3.33;;
49071;SDS011;74284;52.610;10.236;2024-02-14T01:20:33;6.43;;;3.03;;
49071;SDS011;74284;52.610;10.236;2024-02-14T01:22:58;6.37;;;3.37;;
49071;SDS011;74284;52.610;10.236;2024-02-14T01:25:24;5.15;;;3.20;;
49071;SDS011;74284;52.610;10.236;2024-02-14T01:27:51;5.85;;;2.90;;
49071;SDS011;74284;52.610;10.236;2024-02-14T01:30:17;5.10;;;3.20;;
49071;SDS011;74284;52.610;10.236;2024-02-14T01:32:44;7.20;;;2.97;;
49071;SDS011;74284;52.610;10.236;2024-02-14T01:35:09;4.80;;;3.22;;
49071;SDS011;74284;52.610;10.236;2024-02-14T01:37:34;5.53;;;2.97;;
49071;SDS011;74284;52.610;10.236;2024-02-14T01:40:00;5.40;;;3.10;;
49071;SDS011;74284;52.610;10.236;2024-02-14T01:42:25;5.70;;;2.60;;
49071;SDS011;74284;52.610;10.236;2024-02-14T01:44:52;5.72;;;2.97;;
49071;SDS011;74284;52.610;10.236;2024-02-14T01:47:19;6.60;;;3.20;;
49071;SDS011;74284;52.610;10.236;2024-02-14T01:49:45;4.50;;;2.97;;
49071;SDS011;74284;52.610;10.236;2024-02-14T01:52:12;7.30;;;2.85;;
49071;SDS011;74284;52.610;10.236;2024-02-14T01:54:38;5.57;;;2.78;;
49071;SDS011;74284;52.610;10.236;2024-02-14T01:57:03;6.57;;;3.13;;
49071;SDS011;74284;52.610;10.236;2024-02-14T01:59:30;6.68;;;2.97;;
49071;SDS011;74284;52.610;10.236;2024-02-14T02:01:55;6.70;;;3.40;;
49071;SDS011;74284;52.610;10.236;2024-02-14T02:04:20;5.03;;;3.00;;
49071;SDS011;74284;52.610;10.236;2024-02-14T02:06:46;6.72;;;3.00;;
49071;SDS011;74284;52.610;10.236;2024-02-14T02:09:12;7.38;;;3.20;;
49071;SDS011;74284;52.610;10.236;2024-02-14T02:11:51;6.53;;;3.28;;
49071;SDS011;74284;52.610;10.236;2024-02-14T02:14:21;4.10;;;2.65;;
49071;SDS011;74284;52.610;10.236;2024-02-14T02:16:46;4.60;;;3.13;;
49071;SDS011;74284;52.610;10.236;2024-02-14T02:19:11;8.13;;;3.13;;
49071;SDS011;74284;52.610;10.236;2024-02-14T02:21:37;7.40;;;3.40;;
49071;SDS011;74284;52.610;10.236;2024-02-14T02:24:02;5.68;;;2.95;;
49071;SDS011;74284;52.610;10.236;2024-02-14T02:26:28;8.52;;;3.10;;
49071;SDS011;74284;52.610;10.236;2024-02-14T02:28:53;8.07;;;3.53;;
49071;SDS011;74284;52.610;10.236;2024-02-14T02:31:19;8.65;;;3.42;;
49071;SDS011;74284;52.610;10.236;2024-02-14T02:33:45;5.28;;;3.05;;
49071;SDS011;74284;52.610;10.236;2024-02-14T02:36:10;7.40;;;2.92;;
49071;SDS011;74284;52.610;10.236;2024-02-14T02:38:36;5.63;;;3.03;;
49071;SDS011;74284;52.610;10.236;2024-02-14T02:41:01;5.38;;;3.75;;
49071;SDS011;74284;52.610;10.236;2024-02-14T02:43:28;5.90;;;2.75;;
49071;SDS011;74284;52.610;10.236;2024-02-14T02:45:53;5.47;;;2.65;;
49071;SDS011;74284;52.610;10.236;2024-02-14T02:48:19;6.00;;;3.08;;
49071;SDS011;74284;52.610;10.236;2024-02-14T02:50:48;6.45;;;3.38;;
49071;SDS011;74284;52.610;10.236;2024-02-14T02:53:18;8.23;;;3.78;;
49071;SDS011;74284;52.610;10.236;2024-02-14T02:55:43;9.63;;;3.63;;
49071;SDS011;74284;52.610;10.236;2024-02-14T02:58:09;9.15;;;3.70;;
49071;SDS011;74284;52.610;10.236;2024-02-14T03:00:35;6.82;;;3.35;;
49071;SDS011;74284;52.610;10.236;2024-02-14T03:03:00;8.30;;;4.10;;
49071;SDS011;74284;52.610;10.236;2024-02-14T03:05:27;10.88;;;3.50;;
49071;SDS011;74284;52.610;10.236;2024-02-14T03:07:53;10.02;;;4.40;;
49071;SDS011;74284;52.610;10.236;2024-02-14T03:10:22;8.95;;;3.97;;
49071;SDS011;74284;52.610;10.236;2024-02-14T03:12:47;10.13;;;4.00;;
49071;SDS011;74284;52.610;10.236;2024-02-14T03:15:13;9.65;;;4.38;;
49071;SDS011;74284;52.610;10.236;2024-02-14T03:17:39;6.90;;;4.20;;
49071;SDS011;74284;52.610;10.236;2024-02-14T03:20:05;8.85;;;4.40;;
49071;SDS011;74284;52.610;10.236;2024-02-14T03:22:35;7.63;;;4.20;;
49071;SDS011;74284;52.610;10.236;2024-02-14T03:25:01;10.57;;;4.85;;
49071;SDS011;74284;52.610;10.236;2024-02-14T03:27:26;9.82;;;4.28;;
49071;SDS011;74284;52.610;10.236;2024-02-14T03:29:51;9.77;;;4.05;;
49071;SDS011;74284;52.610;10.236;2024-02-14T03:32:17;9.75;;;4.53;;
49071;SDS011;74284;52.610;10.236;2024-02-14T03:34:42;10.98;;;5.00;;
49071;SDS011;74284;52.610;10.236;2024-02-14T03:37:08;7.15;;;4.85;;
49071;SDS011;74284;52.610;10.236;2024-02-14T03:39:33;9.05;;;4.80;;
49071;SDS011;74284;52.610;10.236;2024-02-14T03:41:59;8.82;;;4.93;;
49071;SDS011;74284;52.610;10.236;2024-02-14T03:44:27;9.23;;;4.90;;
49071;SDS011;74284;52.610;10.236;2024-02-14T03:46:53;9.77;;;4.82;;
49071;SDS011;74284;52.610;10.236;2024-02-14T03:49:18;11.27;;;5.45;;
49071;SDS011;74284;52.610;10.236;2024-02-14T03:51:44;12.45;;;5.25;;
49071;SDS011;74284;52.610;10.236;2024-02-14T03:54:10;7.43;;;5.10;;
49071;SDS011;74284;52.610;10.236;2024-02-14T03:56:36;10.18;;;5.20;;
49071;SDS011;74284;52.610;10.236;2024-02-14T03:59:02;11.35;;;6.20;;
49071;SDS011;74284;52.610;10.236;2024-02-14T04:01:32;8.98;;;5.47;;
49071;SDS011;74284;52.610;10.236;2024-02-14T04:03:58;11.55;;;5.60;;
49071;SDS011;74284;52.610;10.236;2024-02-14T04:06:24;10.80;;;5.95;;
49071;SDS011;74284;52.610;10.236;2024-02-14T04:08:51;9.88;;;5.55;;
49071;SDS011;74284;52.610;10.236;2024-02-14T04:11:17;10.70;;;5.50;;
49071;SDS011;74284;52.610;10.236;2024-02-14T04:13:42;8.98;;;5.85;;
49071;SDS011;74284;52.610;10.236;2024-02-14T04:16:07;11.40;;;6.25;;
49071;SDS011;74284;52.610;10.236;2024-02-14T04:18:33;13.45;;;6.00;;
49071;SDS011;74284;52.610;10.236;2024-02-14T04:20:58;9.73;;;6.43;;
49071;SDS011;74284;52.610;10.236;2024-02-14T04:23:24;15.00;;;7.10;;
49071;SDS011;74284;52.610;10.236;2024-02-14T04:25:50;11.60;;;6.60;;
49071;SDS011;74284;52.610;10.236;2024-02-14T04:28:15;10.13;;;5.90;;
49071;SDS011;74284;52.610;10.236;2024-02-14T04:30:41;14.68;;;7.07;;
49071;SDS011;74284;52.610;10.236;2024-02-14T04:33:06;13.70;;;7.53;;
49071;SDS011;74284;52.610;10.236;2024-02-14T04:35:33;16.30;;;6.65;;
49071;SDS011;74284;52.610;10.236;2024-02-14T04:37:58;14.73;;;7.68;;
49071;SDS011;74284;52.610;10.236;2024-02-14T04:40:24;15.50;;;6.95;;
49071;SDS011;74284;52.610;10.236;2024-02-14T04:42:49;12.43;;;7.15;;
49071;SDS011;74284;52.610;10.236;2024-02-14T04:45:15;16.42;;;7.20;;
49071;SDS011;74284;52.610;10.236;2024-02-14T04:47:40;15.00;;;7.13;;
49071;SDS011;74284;52.610;10.236;2024-02-14T04:50:06;13.52;;;6.95;;
49071;SDS011;74284;52.610;10.236;2024-02-14T04:52:32;11.82;;;6.20;;
49071;SDS011;74284;52.610;10.236;2024-02-14T04:54:57;16.05;;;6.90;;
49071;SDS011;74284;52.610;10.236;2024-02-14T04:57:22;12.85;;;6.57;;
49071;SDS011;74284;52.610;10.236;2024-02-14T04:59:48;10.65;;;6.78;;
49071;SDS011;74284;52.610;10.236;2024-02-14T05:02:13;11.18;;;6.88;;
49071;SDS011;74284;52.610;10.236;2024-02-14T05:04:39;10.52;;;6.38;;
49071;SDS011;74284;52.610;10.236;2024-02-14T05:07:05;12.95;;;6.30;;
49071;SDS011;74284;52.610;10.236;2024-02-14T05:09:30;12.88;;;6.45;;
49071;SDS011;74284;52.610;10.236;2024-02-14T05:11:55;14.20;;;6.20;;
49071;SDS011;74284;52.610;10.236;2024-02-14T05:14:21;12.35;;;6.07;;
49071;SDS011;74284;52.610;10.236;2024-02-14T05:16:46;11.15;;;6.15;;
49071;SDS011;74284;52.610;10.236;2024-02-14T05:19:12;11.55;;;6.45;;
49071;SDS011;74284;52.610;10.236;2024-02-14T05:21:37;12.95;;;6.88;;
49071;SDS011;74284;52.610;10.236;2024-02-14T05:24:03;11.65;;;6.25;;
49071;SDS011;74284;52.610;10.236;2024-02-14T05:26:29;12.52;;;6.50;;
49071;SDS011;74284;52.610;10.236;2024-02-14T05:28:54;11.95;;;6.85;;
49071;SDS011;74284;52.610;10.236;2024-02-14T05:31:20;10.43;;;6.78;;
49071;SDS011;74284;52.610;10.236;2024-02-14T05:33:45;13.00;;;7.20;;
49071;SDS011;74284;52.610;10.236;2024-02-14T05:36:10;11.63;;;6.05;;
49071;SDS011;74284;52.610;10.236;2024-02-14T05:38:36;13.57;;;7.07;;
49071;SDS011;74284;52.610;10.236;2024-02-14T05:41:01;10.37;;;5.83;;
49071;SDS011;74284;52.610;10.236;2024-02-14T05:43:26;12.15;;;6.38;;
49071;SDS011;74284;52.610;10.236;2024-02-14T05:45:52;12.07;;;6.65;;
49071;SDS011;74284;52.610;10.236;2024-02-14T05:48:18;14.60;;;7.35;;
49071;SDS011;74284;52.610;10.236;2024-02-14T05:50:44;10.77;;;6.22;;
49071;SDS011;74284;52.610;10.236;2024-02-14T05:53:09;17.08;;;7.38;;
49071;SDS011;74284;52.610;10.236;2024-02-14T05:55:37;11.85;;;6.30;;
49071;SDS011;74284;52.610;10.236;2024-02-14T05:58:02;10.50;;;6.30;;
49071;SDS011;74284;52.610;10.236;2024-02-14T06:00:28;13.20;;;7.60;;
49071;SDS011;74284;52.610;10.236;2024-02-14T06:02:53;9.93;;;6.20;;
49071;SDS011;74284;52.610;10.236;2024-02-14T06:05:18;13.27;;;6.88;;
49071;SDS011;74284;52.610;10.236;2024-02-14T06:07:44;13.30;;;6.70;;
49071;SDS011;74284;52.610;10.236;2024-02-14T06:10:10;11.77;;;6.50;;
49071;SDS011;74284;52.610;10.236;2024-02-14T06:15:01;13.85;;;7.00;;
49071;SDS011;74284;52.610;10.236;2024-02-14T06:17:27;14.27;;;6.80;;
49071;SDS011;74284;52.610;10.236;2024-02-14T06:19:53;12.70;;;6.70;;
49071;SDS011;74284;52.610;10.236;2024-02-14T06:24:44;15.98;;;6.38;;
49071;SDS011;74284;52.610;10.236;2024-02-14T06:27:09;11.52;;;6.43;;
49071;SDS011;74284;52.610;10.236;2024-02-14T06:29:34;15.32;;;6.80;;
49071;SDS011;74284;52.610;10.236;2024-02-14T06:32:00;10.30;;;6.53;;
49071;SDS011;74284;52.610;10.236;2024-02-14T06:34:25;17.92;;;6.60;;
49071;SDS011;74284;52.610;10.236;2024-02-14T06:36:53;13.43;;;6.13;;
49071;SDS011;74284;52.610;10.236;2024-02-14T06:39:18;14.57;;;7.13;;
49071;SDS011;74284;52.610;10.236;2024-02-14T06:41:45;13.23;;;6.63;;
49071;SDS011;74284;52.610;10.236;2024-02-14T06:44:12;14.48;;;6.10;;
49071;SDS011;74284;52.610;10.236;2024-02-14T06:46:37;18.17;;;6.55;;
49071;SDS011;74284;52.610;10.236;2024-02-14T06:49:03;12.43;;;6.18;;
49071;SDS011;74284;52.610;10.236;2024-02-14T06:51:28;12.15;;;6.00;;
49071;SDS011;74284;52.610;10.236;2024-02-14T06:53:55;12.45;;;6.68;;
49071;SDS011;74284;52.610;10.236;2024-02-14T06:56:21;11.27;;;5.70;;
49071;SDS011;74284;52.610;10.236;2024-02-14T06:58:46;14.27;;;6.15;;
49071;SDS011;74284;52.610;10.236;2024-02-14T07:01:11;7.93;;;5.60;;
49071;SDS011;74284;52.610;10.236;2024-02-14T07:03:38;12.85;;;5.95;;
49071;SDS011;74284;52.610;10.236;2024-02-14T07:06:05;13.43;;;6.07;;
49071;SDS011;74284;52.610;10.236;2024-02-14T07:08:31;9.60;;;6.05;;
49071;SDS011;74284;52.610;10.236;2024-02-14T07:10:56;9.38;;;5.82;;
49071;SDS011;74284;52.610;10.236;2024-02-14T07:13:21;15.57;;;6.43;;
49071;SDS011;74284;52.610;10.236;2024-02-14T07:15:47;11.67;;;5.63;;
49071;SDS011;74284;52.610;10.236;2024-02-14T07:18:12;8.60;;;5.47;;
49071;SDS011;74284;52.610;10.236;2024-02-14T07:20:37;12.50;;;6.00;;
49071;SDS011;74284;52.610;10.236;2024-02-14T07:23:03;13.40;;;5.57;;
49071;SDS011;74284;52.610;10.236;2024-02-14T07:25:29;11.85;;;5.88;;
49071;SDS011;74284;52.610;10.236;2024-02-14T07:27:54;13.52;;;6.65;;
49071;SDS011;74284;52.610;10.236;2024-02-14T07:30:20;11.52;;;6.00;;
49071;SDS011;74284;52.610;10.236;2024-02-14T07:32:45;11.93;;;5.82;;
49071;SDS011;74284;52.610;10.236;2024-02-14T07:35:10;10.55;;;5.80;;
49071;SDS011;74284;52.610;10.236;2024-02-14T07:37:38;15.98;;;6.78;;
49071;SDS011;74284;52.610;10.236;2024-02-14T07:40:03;9.15;;;6.00;;
49071;SDS011;74284;52.610;10.236;2024-02-14T07:42:30;11.13;;;5.95;;
49071;SDS011;74284;52.610;10.236;2024-02-14T07:47:21;10.57;;;6.05;;
49071;SDS011;74284;52.610;10.236;2024-02-14T07:49:47;13.32;;;6.32;;
49071;SDS011;74284;52.610;10.236;2024-02-14T07:52:12;14.30;;;6.10;;
49071;SDS011;74284;52.610;10.236;2024-02-14T07:54:37;10.40;;;6.33;;
49071;SDS011;74284;52.610;10.236;2024-02-14T07:57:03;16.03;;;6.87;;
49071;SDS011;74284;52.610;10.236;2024-02-14T07:59:28;13.48;;;6.25;;
49071;SDS011;74284;52.610;10.236;2024-02-14T08:01:54;10.30;;;6.25;;
49071;SDS011;74284;52.610;10.236;2024-02-14T08:04:19;14.43;;;6.97;;
49071;SDS011;74284;52.610;10.236;2024-02-14T08:06:45;14.00;;;6.35;;
49071;SDS011;74284;52.610;10.236;2024-02-14T08:09:11;16.83;;;6.70;;
49071;SDS011;74284;52.610;10.236;2024-02-14T08:11:37;12.20;;;6.57;;
49071;SDS011;74284;52.610;10.236;2024-02-14T08:14:03;9.25;;;6.15;;
49071;SDS011;74284;52.610;10.236;2024-02-14T08:16:28;11.20;;;5.90;;
49071;SDS011;74284;52.610;10.236;2024-02-14T08:18:53;11.63;;;6.20;;
49071;SDS011;74284;52.610;10.236;2024-02-14T08:21:24;11.23;;;6.03;;
49071;SDS011;74284;52.610;10.236;2024-02-14T08:23:51;11.10;;;6.38;;
49071;SDS011;74284;52.610;10.236;2024-02-14T08:26:17;15.43;;;6.80;;
49071;SDS011;74284;52.610;10.236;2024-02-14T08:28:42;12.05;;;6.55;;
49071;SDS011;74284;52.610;10.236;2024-02-14T08:31:11;11.57;;;5.72;;
49071;SDS011;74284;52.610;10.236;2024-02-14T08:33:39;8.27;;;5.65;;
49071;SDS011;74284;52.610;10.236;2024-02-14T08:36:05;12.30;;;6.05;;
49071;SDS011;74284;52.610;10.236;2024-02-14T08:38:31;9.02;;;5.75;;
49071;SDS011;74284;52.610;10.236;2024-02-14T08:40:57;12.60;;;6.20;;
49071;SDS011;74284;52.610;10.236;2024-02-14T08:43:22;10.40;;;5.50;;
49071;SDS011;74284;52.610;10.236;2024-02-14T08:45:50;11.48;;;5.55;;
49071;SDS011;74284;52.610;10.236;2024-02-14T08:50:42;7.93;;;5.30;;
49071;SDS011;74284;52.610;10.236;2024-02-14T08:53:07;12.48;;;6.35;;
49071;SDS011;74284;52.610;10.236;2024-02-14T08:55:32;11.00;;;6.25;;
49071;SDS011;74284;52.610;10.236;2024-02-14T08:57:58;11.00;;;6.05;;
49071;SDS011;74284;52.610;10.236;2024-02-14T09:00:23;8.73;;;5.60;;
49071;SDS011;74284;52.610;10.236;2024-02-14T09:02:48;11.07;;;5.33;;
49071;SDS011;74284;52.610;10.236;2024-02-14T09:05:14;9.88;;;5.03;;
49071;SDS011;74284;52.610;10.236;2024-02-14T09:07:39;8.48;;;5.10;;
49071;SDS011;74284;52.610;10.236;2024-02-14T09:10:06;9.95;;;5.25;;
49071;SDS011;74284;52.610;10.236;2024-02-14T09:12:32;9.68;;;5.40;;
49071;SDS011;74284;52.610;10.236;2024-02-14T09:17:24;9.18;;;5.13;;
49071;SDS011;74284;52.610;10.236;2024-02-14T09:19:49;10.48;;;4.88;;
49071;SDS011;74284;52.610;10.236;2024-02-14T09:22:14;8.65;;;5.00;;
49071;SDS011;74284;52.610;10.236;2024-02-14T09:24:46;9.80;;;5.43;;
49071;SDS011;74284;52.610;10.236;2024-02-14T09:27:11;10.15;;;5.10;;
49071;SDS011;74284;52.610;10.236;2024-02-14T09:29:36;9.77;;;4.63;;
49071;SDS011;74284;52.610;10.236;2024-02-14T09:32:03;9.05;;;5.03;;
49071;SDS011;74284;52.610;10.236;2024-02-14T09:34:29;12.80;;;5.07;;
49071;SDS011;74284;52.610;10.236;2024-02-14T09:36:54;9.93;;;4.90;;
49071;SDS011;74284;52.610;10.236;2024-02-14T09:39:21;7.15;;;4.63;;
49071;SDS011;74284;52.610;10.236;2024-02-14T09:41:50;8.80;;;5.32;;
49071;SDS011;74284;52.610;10.236;2024-02-14T09:44:19;10.40;;;5.47;;
49071;SDS011;74284;52.610;10.236;2024-02-14T09:46:46;9.40;;;5.20;;
49071;SDS011;74284;52.610;10.236;2024-02-14T09:49:13;8.52;;;4.72;;
49071;SDS011;74284;52.610;10.236;2024-02-14T09:51:41;7.97;;;5.03;;
49071;SDS011;74284;52.610;10.236;2024-02-14T09:54:09;8.88;;;4.78;;
49071;SDS011;74284;52.610;10.236;2024-02-14T09:56:36;8.68;;;5.10;;
49071;SDS011;74284;52.610;10.236;2024-02-14T10:01:27;11.90;;;5.28;;
49071;SDS011;74284;52.610;10.236;2024-02-14T10:06:19;7.50;;;4.70;;
49071;SDS011;74284;52.610;10.236;2024-02-14T10:08:48;8.65;;;5.55;;
49071;SDS011;74284;52.610;10.236;2024-02-14T10:11:15;10.35;;;5.60;;
49071;SDS011;74284;52.610;10.236;2024-02-14T10:16:06;9.00;;;5.90;;
49071;SDS011;74284;52.610;10.236;2024-02-14T10:18:33;12.13;;;6.00;;
49071;SDS011;74284;52.610;10.236;2024-02-14T10:20:58;8.10;;;5.22;;
49071;SDS011;74284;52.610;10.236;2024-02-14T10:23:24;8.95;;;5.57;;
49071;SDS011;74284;52.610;10.236;2024-02-14T10:25:54;10.93;;;6.13;;
49071;SDS011;74284;52.610;10.236;2024-02-14T10:28:22;13.30;;;7.18;;
49071;SDS011;74284;52.610;10.236;2024-02-14T10:33:14;12.63;;;6.25;;
49071;SDS011;74284;52.610;10.236;2024-02-14T10:35:40;14.23;;;7.70;;
49071;SDS011;74284;52.610;10.236;2024-02-14T10:38:07;15.90;;;8.15;;
49071;SDS011;74284;52.610;10.236;2024-02-14T10:40:35;14.00;;;8.20;;
49071;SDS011;74284;52.610;10.236;2024-02-14T10:43:01;15.32;;;8.80;;
49071;SDS011;74284;52.610;10.236;2024-02-14T10:45:27;14.60;;;8.98;;
49071;SDS011;74284;52.610;10.236;2024-02-14T10:50:19;17.63;;;9.88;;
49071;SDS011;74284;52.610;10.236;2024-02-14T10:52:46;15.73;;;9.50;;
49071;SDS011;74284;52.610;10.236;2024-02-14T10:55:13;15.82;;;9.82;;
49071;SDS011;74284;52.610;10.236;2024-02-14T10:57:42;18.98;;;11.70;;
49071;SDS011;74284;52.610;10.236;2024-02-14T11:00:08;19.65;;;11.35;;
49071;SDS011;74284;52.610;10.236;2024-02-14T11:02:38;16.77;;;10.40;;
49071;SDS011;74284;52.610;10.236;2024-02-14T11:05:04;18.95;;;10.32;;
49071;SDS011;74284;52.610;10.236;2024-02-14T11:07:32;19.45;;;11.07;;
49071;SDS011;74284;52.610;10.236;2024-02-14T11:12:32;22.75;;;12.10;;
49071;SDS011;74284;52.610;10.236;2024-02-14T11:14:59;17.05;;;11.60;;
49071;SDS011;74284;52.610;10.236;2024-02-14T11:17:26;19.63;;;11.65;;
49071;SDS011;74284;52.610;10.236;2024-02-14T11:19:52;17.65;;;12.43;;
49071;SDS011;74284;52.610;10.236;2024-02-14T11:24:47;28.98;;;13.45;;
49071;SDS011;74284;52.610;10.236;2024-02-14T11:27:13;17.63;;;11.73;;
49071;SDS011;74284;52.610;10.236;2024-02-14T11:29:40;19.90;;;12.85;;
49071;SDS011;74284;52.610;10.236;2024-02-14T11:32:06;24.42;;;13.15;;
49071;SDS011;74284;52.610;10.236;2024-02-14T11:34:34;23.08;;;14.50;;
49071;SDS011;74284;52.610;10.236;2024-02-14T11:39:25;24.15;;;14.40;;
49071;SDS011;74284;52.610;10.236;2024-02-14T11:41:51;23.13;;;13.63;;
49071;SDS011;74284;52.610;10.236;2024-02-14T11:44:16;26.52;;;14.60;;
49071;SDS011;74284;52.610;10.236;2024-02-14T11:46:47;21.23;;;13.95;;
49071;SDS011;74284;52.610;10.236;2024-02-14T11:51:38;20.23;;;12.68;;
49071;SDS011;74284;52.610;10.236;2024-02-14T11:56:30;23.00;;;14.20;;
49071;SDS011;74284;52.610;10.236;2024-02-14T11:58:59;23.20;;;13.60;;
49071;SDS011;74284;52.610;10.236;2024-02-14T12:01:28;22.05;;;13.75;;
49071;SDS011;74284;52.610;10.236;2024-02-14T12:03:55;23.75;;;14.63;;
49071;SDS011;74284;52.610;10.236;2024-02-14T12:06:22;28.88;;;14.82;;
49071;SDS011;74284;52.610;10.236;2024-02-14T12:11:12;22.05;;;13.82;;
49071;SDS011;74284;52.610;10.236;2024-02-14T12:16:08;22.38;;;13.68;;
49071;SDS011;74284;52.610;10.236;2024-02-14T12:21:05;20.52;;;12.68;;
49071;SDS011;74284;52.610;10.236;2024-02-14T12:23:34;24.80;;;13.93;;
49071;SDS011;74284;52.610;10.236;2024-02-14T12:26:04;22.10;;;12.95;;
49071;SDS011;74284;52.610;10.236;2024-02-14T12:28:30;21.70;;;13.55;;
49071;SDS011;74284;52.610;10.236;2024-02-14T12:30:56;17.83;;;11.98;;
49071;SDS011;74284;52.610;10.236;2024-02-14T12:33:22;19.27;;;12.70;;
49071;SDS011;74284;52.610;10.236;2024-02-14T12:35:55;24.08;;;13.63;;
49071;SDS011;74284;52.610;10.236;2024-02-14T12:38:22;21.15;;;13.00;;
49071;SDS011;74284;52.610;10.236;2024-02-14T12:40:50;20.17;;;12.38;;
49071;SDS011;74284;52.610;10.236;2024-02-14T12:43:18;20.95;;;13.07;;
49071;SDS011;74284;52.610;10.236;2024-02-14T12:48:10;17.48;;;11.35;;
49071;SDS011;74284;52.610;10.236;2024-02-14T12:50:38;25.05;;;12.43;;
49071;SDS011;74284;52.610;10.236;2024-02-14T12:55:29;19.98;;;12.50;;
49071;SDS011;74284;52.610;10.236;2024-02-14T12:57:55;19.02;;;12.85;;
49071;SDS011;74284;52.610;10.236;2024-02-14T13:00:23;19.00;;;11.82;;
49071;SDS011;74284;52.610;10.236;2024-02-14T13:05:14;18.42;;;11.73;;
49071;SDS011;74284;52.610;10.236;2024-02-14T13:10:06;19.17;;;12.13;;
49071;SDS011;74284;52.610;10.236;2024-02-14T13:12:34;19.58;;;12.07;;
49071;SDS011;74284;52.610;10.236;2024-02-14T13:17:25;20.70;;;13.15;;
49071;SDS011;74284;52.610;10.236;2024-02-14T13:22:18;20.65;;;12.55;;
49071;SDS011;74284;52.610;10.236;2024-02-14T13:27:09;18.17;;;12.18;;
49071;SDS011;74284;52.610;10.236;2024-02-14T13:32:00;27.02;;;13.77;;
49071;SDS011;74284;52.610;10.236;2024-02-14T13:34:27;15.77;;;11.65;;
49071;SDS011;74284;52.610;10.236;2024-02-14T13:39:17;18.27;;;11.88;;
49071;SDS011;74284;52.610;10.236;2024-02-14T13:44:09;17.25;;;11.25;;
49071;SDS011;74284;52.610;10.236;2024-02-14T13:49:01;19.27;;;12.38;;
49071;SDS011;74284;52.610;10.236;2024-02-14T13:51:26;18.77;;;11.75;;
49071;SDS011;74284;52.610;10.236;2024-02-14T13:56:17;18.90;;;12.20;;
49071;SDS011;74284;52.610;10.236;2024-02-14T13:58:46;19.08;;;12.70;;
49071;SDS011;74284;52.610;10.236;2024-02-14T14:03:36;23.98;;;12.70;;
49071;SDS011;74284;52.610;10.236;2024-02-14T14:08:30;16.55;;;11.65;;
49071;SDS011;74284;52.610;10.236;2024-02-14T14:13:21;15.88;;;11.48;;
49071;SDS011;74284;52.610;10.236;2024-02-14T14:18:11;18.25;;;11.85;;
49071;SDS011;74284;52.610;10.236;2024-02-14T14:23:02;17.80;;;12.32;;
49071;SDS011;74284;52.610;10.236;2024-02-14T14:27:55;15.73;;;11.30;;
49071;SDS011;74284;52.610;10.236;2024-02-14T14:32:46;18.13;;;12.60;;
49071;SDS011;74284;52.610;10.236;2024-02-14T14:37:37;17.95;;;12.18;;
49071;SDS011;74284;52.610;10.236;2024-02-14T14:44:55;16.55;;;11.95;;
49071;SDS011;74284;52.610;10.236;2024-02-14T14:47:22;19.27;;;13.25;;
49071;SDS011;74284;52.610;10.236;2024-02-14T14:52:13;22.08;;;12.02;;
49071;SDS011;74284;52.610;10.236;2024-02-14T14:54:38;15.55;;;10.50;;
49071;SDS011;74284;52.610;10.236;2024-02-14T14:59:34;16.98;;;11.85;;
49071;SDS011;74284;52.610;10.236;2024-02-14T15:04:25;18.60;;;11.82;;
49071;SDS011;74284;52.610;10.236;2024-02-14T15:09:17;17.50;;;11.52;;
49071;SDS011;74284;52.610;10.236;2024-02-14T15:11:44;20.63;;;12.05;;
49071;SDS011;74284;52.610;10.236;2024-02-14T15:16:34;13.95;;;10.23;;
49071;SDS011;74284;52.610;10.236;2024-02-14T15:21:25;15.38;;;10.80;;
49071;SDS011;74284;52.610;10.236;2024-02-14T15:26:15;12.77;;;9.30;;
49071;SDS011;74284;52.610;10.236;2024-02-14T15:28:42;11.82;;;9.02;;
49071;SDS011;74284;52.610;10.236;2024-02-14T15:31:10;11.65;;;8.68;;
49071;SDS011;74284;52.610;10.236;2024-02-14T15:33:54;13.90;;;9.10;;
49071;SDS011;74284;52.610;10.236;2024-02-14T15:38:46;10.63;;;7.93;;
49071;SDS011;74284;52.610;10.236;2024-02-14T15:41:11;9.85;;;7.95;;
49071;SDS011;74284;52.610;10.236;2024-02-14T15:43:36;11.10;;;6.68;;
49071;SDS011;74284;52.610;10.236;2024-02-14T15:48:27;12.63;;;7.63;;
49071;SDS011;74284;52.610;10.236;2024-02-14T15:50:55;8.68;;;6.60;;
49071;SDS011;74284;52.610;10.236;2024-02-14T15:53:22;10.07;;;7.30;;
49071;SDS011;74284;52.610;10.236;2024-02-14T15:55:51;8.60;;;6.78;;
49071;SDS011;74284;52.610;10.236;2024-02-14T16:00:42;7.28;;;5.13;;
49071;SDS011;74284;52.610;10.236;2024-02-14T16:05:33;9.02;;;5.00;;
49071;SDS011;74284;52.610;10.236;2024-02-14T16:10:24;6.90;;;5.18;;
49071;SDS011;74284;52.610;10.236;2024-02-14T16:15:15;6.70;;;5.03;;
49071;SDS011;74284;52.610;10.236;2024-02-14T16:17:44;6.43;;;4.53;;
49071;SDS011;74284;52.610;10.236;2024-02-14T16:20:11;7.30;;;4.57;;
49071;SDS011;74284;52.610;10.236;2024-02-14T16:22:37;6.90;;;4.72;;
49071;SDS011;74284;52.610;10.236;2024-02-14T16:27:28;6.10;;;4.50;;